createdAt,value
2023-05-07T00:00:20.607Z,19.4
2023-05-07T00:10:20.500Z,19.5
2023-05-07T00:20:20.810Z,19.5
2023-05-07T00:30:20.512Z,19.5
2023-05-07T00:40:20.324Z,19.4
2023-05-07T00:50:20.836Z,19.4
2023-05-07T01:00:21.195Z,19.4
2023-05-07T01:10:21.077Z,19.5
2023-05-07T01:20:20.597Z,19.3
2023-05-07T01:30:20.595Z,19.3
2023-05-07T01:40:19.823Z,19.3
2023-05-07T01:50:20.337Z,19.2
2023-05-07T02:00:21.561Z,19.4
2023-05-07T02:10:21.361Z,19.2
2023-05-07T02:20:21.881Z,19.1
2023-05-07T02:30:22.839Z,19.2
2023-05-07T02:40:22.236Z,19.1
2023-05-07T02:50:22.537Z,19.4
2023-05-07T03:10:07.207Z,19.1
2023-05-07T03:20:07.530Z,19.1
2023-05-07T03:30:07.423Z,19.2
2023-05-07T03:40:08.572Z,19
2023-05-07T03:50:16.142Z,19.8
2023-05-07T04:00:27.790Z,18.9
2023-05-07T04:10:43.887Z,19.1
2023-05-07T04:20:59.424Z,19.1
2023-05-07T04:31:16.577Z,19
2023-05-07T04:41:34.023Z,19.3
2023-05-07T04:51:49.902Z,19.3
2023-05-07T05:02:06.869Z,19.5
2023-05-07T05:12:22.827Z,19.4
2023-05-07T05:22:39.629Z,19.4
2023-05-07T05:32:55.615Z,19.8
2023-05-07T05:43:12.005Z,19.8
2023-05-07T05:53:27.281Z,20.1
2023-05-07T06:03:44.533Z,20.3
2023-05-07T06:14:00.687Z,20.3
2023-05-07T06:24:17.312Z,20.4
2023-05-07T06:34:34.324Z,19.8
2023-05-07T06:44:52.069Z,20.8
2023-05-07T06:55:09.404Z,21.1
2023-05-07T07:05:26.894Z,20.6
2023-05-07T07:15:42.934Z,21.7
2023-05-07T07:25:58.284Z,21.9
2023-05-07T07:36:14.700Z,22.3
2023-05-07T07:46:31.322Z,22.2
2023-05-07T07:56:50.345Z,22.9
2023-05-07T08:07:08.976Z,21.6
2023-05-07T08:17:26.579Z,21.9
2023-05-07T08:27:43.931Z,22.6
2023-05-07T08:38:01.863Z,22.4
2023-05-07T08:48:17.733Z,22.5
2023-05-07T08:58:33.887Z,22.4
2023-05-07T09:10:26.008Z,22.5
2023-05-07T09:20:46.130Z,22.7
2023-05-07T09:31:05.349Z,22.4
2023-05-07T09:41:24.293Z,22.4
2023-05-07T09:51:43.940Z,22.4
2023-05-07T10:02:04.959Z,22.1
2023-05-07T10:12:24.452Z,22.6
2023-05-07T10:22:45.295Z,22.7
2023-05-07T10:33:04.035Z,22.9
2023-05-07T10:43:22.740Z,22.3
2023-05-07T10:53:42.179Z,22.8
2023-05-07T11:03:59.415Z,23.1
2023-05-07T11:14:17.581Z,22.9
2023-05-07T11:24:35.623Z,23.4
2023-05-07T11:34:53.172Z,23
2023-05-07T11:45:10.786Z,23.5
2023-05-07T11:55:26.909Z,23.5
2023-05-07T12:05:42.446Z,21.2
2023-05-07T12:15:56.631Z,22.3
2023-05-07T12:26:10.332Z,19.3
2023-05-07T12:36:24.316Z,20.8
2023-05-07T12:46:38.341Z,22.4
2023-05-07T12:56:50.698Z,23.3
2023-05-07T13:07:02.789Z,22.3
2023-05-07T13:17:15.506Z,22.5
2023-05-07T13:27:29.053Z,22.4
2023-05-07T13:37:43.622Z,23.2
2023-05-07T13:47:59.095Z,23.6
2023-05-07T13:58:12.799Z,22.8
2023-05-07T14:08:23.947Z,22.6
2023-05-07T14:18:32.026Z,20.7
2023-05-07T14:28:45.022Z,22.7
2023-05-07T14:38:52.624Z,22.6
2023-05-07T14:48:53.309Z,22.8
2023-05-07T14:58:54.600Z,22.7
2023-05-07T15:10:09.387Z,23.1
2023-05-07T15:20:09.326Z,22.9
2023-05-07T15:30:11.078Z,23
2023-05-07T15:40:13.147Z,22.8
2023-05-07T15:50:13.558Z,23.1
2023-05-07T16:00:13.193Z,22.7
2023-05-07T16:10:16.033Z,22.9
2023-05-07T16:20:16.797Z,22.9
2023-05-07T16:30:17.379Z,22.8
2023-05-07T16:40:18.270Z,22.8
2023-05-07T16:50:18.926Z,22.6
2023-05-07T17:00:18.664Z,22.3
2023-05-07T17:10:19.395Z,22.4
2023-05-07T17:20:19.602Z,22.4
2023-05-07T17:30:19.273Z,21.8
2023-05-07T17:40:19.955Z,21.6
2023-05-07T17:50:19.965Z,21.5
2023-05-07T18:00:19.874Z,21.2
2023-05-07T18:10:20.373Z,21.4
2023-05-07T18:20:20.581Z,20.9
2023-05-07T18:30:20.212Z,20.9
2023-05-07T18:40:19.503Z,20.9
2023-05-07T18:50:19.948Z,21
2023-05-07T19:00:19.485Z,21.4
2023-05-07T19:10:19.421Z,21.3
2023-05-07T19:20:19.143Z,21.4
2023-05-07T19:30:18.388Z,21.4
2023-05-07T19:40:18.624Z,21.3
2023-05-07T19:50:18.213Z,21.3
2023-05-07T20:00:17.661Z,21.3
2023-05-07T20:10:16.959Z,21.3
2023-05-07T20:20:16.727Z,21.3
2023-05-07T20:30:16.019Z,21.2
2023-05-07T20:40:15.595Z,21.5
2023-05-07T20:50:15.548Z,21.2
2023-05-07T21:10:08.178Z,21.2
2023-05-07T21:20:08.139Z,21.1
2023-05-07T21:30:08.539Z,21.4
2023-05-07T21:40:08.423Z,21.3
2023-05-07T21:50:08.035Z,21.1
2023-05-07T22:00:08.125Z,21
2023-05-07T22:10:09.205Z,20.9
2023-05-07T22:20:10.313Z,21.2
2023-05-07T22:30:11.272Z,20.9
2023-05-07T22:40:12.287Z,20.9
2023-05-07T22:50:12.998Z,20.9
2023-05-07T23:00:13.326Z,21.2
2023-05-07T23:10:12.708Z,20.9
2023-05-07T23:20:14.867Z,21.4
2023-05-07T23:30:17.143Z,21.2
2023-05-07T23:40:19.417Z,21.2
2023-05-07T23:50:21.952Z,21
